createdAt,value
2022-12-15T00:02:10.139Z,33.03
2022-12-15T00:04:38.343Z,35.08
2022-12-15T00:07:06.389Z,67.15
2022-12-15T00:09:34.755Z,91.55
2022-12-15T00:12:03.015Z,54.90
2022-12-15T00:14:31.239Z,75.25
2022-12-15T00:16:59.348Z,57.28
2022-12-15T00:19:28.621Z,51.83
2022-12-15T00:21:56.723Z,33.80
2022-12-15T00:24:24.912Z,27.95
2022-12-15T00:26:53.134Z,35.65
2022-12-15T00:29:21.394Z,25.95
2022-12-15T00:31:49.633Z,37.67
2022-12-15T00:34:17.854Z,40.63
2022-12-15T00:36:46.077Z,42.78
2022-12-15T00:39:18.353Z,39.60
2022-12-15T00:41:46.483Z,59.40
2022-12-15T00:44:18.963Z,73.40
2022-12-15T00:46:48.849Z,85.05
2022-12-15T00:49:17.197Z,109.45
2022-12-15T00:51:45.278Z,145.15
2022-12-15T00:54:18.037Z,126.53
2022-12-15T00:56:46.492Z,124.50
2022-12-15T00:59:15.259Z,110.60
2022-12-15T01:01:45.138Z,128.00
2022-12-15T01:04:18.543Z,131.43
2022-12-15T01:06:46.774Z,130.35
2022-12-15T01:09:15.129Z,139.57
2022-12-15T01:11:45.039Z,163.80
2022-12-15T01:14:13.906Z,141.40
2022-12-15T01:16:42.345Z,138.00
2022-12-15T01:19:11.772Z,119.28
2022-12-15T01:21:40.492Z,151.60
2022-12-15T01:24:08.717Z,246.85
2022-12-15T01:26:36.824Z,231.68
2022-12-15T01:29:05.064Z,233.88
2022-12-15T01:31:33.168Z,232.63
2022-12-15T01:34:01.286Z,240.35
2022-12-15T01:36:29.473Z,185.18
2022-12-15T01:38:57.631Z,160.77
2022-12-15T01:41:25.923Z,198.50
2022-12-15T01:43:54.483Z,151.70
2022-12-15T01:46:25.221Z,166.43
2022-12-15T01:49:12.396Z,189.18
2022-12-15T01:51:43.624Z,176.90
2022-12-15T01:54:19.109Z,136.33
2022-12-15T01:56:55.148Z,160.95
2022-12-15T01:59:38.089Z,167.13
2022-12-15T02:02:06.453Z,160.65
2022-12-15T02:04:34.963Z,146.05
2022-12-15T02:07:03.054Z,150.23
2022-12-15T02:09:31.385Z,157.05
2022-12-15T02:12:22.460Z,152.02
2022-12-15T02:15:15.075Z,150.15
2022-12-15T02:17:58.395Z,163.80
2022-12-15T02:20:32.283Z,168.02
2022-12-15T02:23:14.008Z,168.95
2022-12-15T02:26:06.615Z,143.45
2022-12-15T02:29:09.112Z,141.32
2022-12-15T02:31:49.865Z,182.60
2022-12-15T02:34:46.046Z,104.25
2022-12-15T02:37:20.260Z,126.60
2022-12-15T02:39:48.594Z,106.38
2022-12-15T02:42:17.655Z,113.50
2022-12-15T02:45:09.202Z,139.60
2022-12-15T02:47:52.610Z,135.30
2022-12-15T02:50:42.124Z,140.75
2022-12-15T02:53:28.787Z,142.20
2022-12-15T02:56:13.644Z,136.70
2022-12-15T02:59:19.363Z,126.72
2022-12-15T03:02:04.062Z,123.82
2022-12-15T03:04:32.868Z,125.53
2022-12-15T03:07:08.847Z,106.15
2022-12-15T03:09:37.019Z,119.50
2022-12-15T03:12:05.400Z,107.10
2022-12-15T03:14:33.827Z,128.15
2022-12-15T03:17:01.920Z,125.28
2022-12-15T03:19:30.005Z,123.18
2022-12-15T03:21:58.245Z,104.00
2022-12-15T03:24:26.449Z,117.60
2022-12-15T03:26:54.716Z,99.75
2022-12-15T03:29:22.900Z,101.65
2022-12-15T03:31:51.211Z,96.32
2022-12-15T03:34:19.500Z,89.53
2022-12-15T03:36:48.000Z,90.57
2022-12-15T03:39:16.087Z,86.03
2022-12-15T03:41:44.426Z,83.13
2022-12-15T03:44:12.504Z,70.28
2022-12-15T03:46:40.645Z,78.72
2022-12-15T03:49:08.874Z,82.63
2022-12-15T03:51:37.075Z,73.15
2022-12-15T03:54:05.245Z,73.40
2022-12-15T03:56:33.492Z,72.32
2022-12-15T03:59:01.597Z,76.50
2022-12-15T04:01:34.500Z,67.47
2022-12-15T04:04:04.345Z,79.95
2022-12-15T04:06:32.624Z,65.90
2022-12-15T04:09:00.736Z,74.97
2022-12-15T04:11:28.860Z,58.90
2022-12-15T04:13:57.030Z,76.60
2022-12-15T04:16:25.180Z,78.63
2022-12-15T04:18:53.310Z,89.88
2022-12-15T04:21:21.359Z,75.45
2022-12-15T04:23:49.387Z,90.68
2022-12-15T04:26:17.475Z,70.63
2022-12-15T04:28:45.535Z,66.63
2022-12-15T04:31:17.032Z,66.47
2022-12-15T04:33:49.520Z,68.47
2022-12-15T04:36:18.308Z,72.90
2022-12-15T04:38:50.298Z,70.90
2022-12-15T04:41:21.854Z,70.18
2022-12-15T04:43:50.055Z,77.82
2022-12-15T04:46:18.191Z,74.18
2022-12-15T04:48:46.345Z,58.20
2022-12-15T04:51:14.380Z,68.05
2022-12-15T04:53:46.296Z,71.90
2022-12-15T04:56:18.846Z,57.25
2022-12-15T04:58:48.979Z,62.13
2022-12-15T05:01:17.099Z,75.88
2022-12-15T05:03:45.225Z,77.85
2022-12-15T05:06:13.340Z,60.20
2022-12-15T05:08:41.488Z,85.55
2022-12-15T05:11:09.771Z,61.67
2022-12-15T05:13:37.923Z,62.30
2022-12-15T05:16:06.468Z,60.08
2022-12-15T05:18:34.622Z,62.25
2022-12-15T05:21:04.076Z,58.75
2022-12-15T05:23:32.539Z,62.65
2022-12-15T05:26:01.813Z,70.40
2022-12-15T05:28:29.958Z,56.72
2022-12-15T05:30:58.521Z,53.45
2022-12-15T05:33:26.824Z,66.93
2022-12-15T05:35:57.781Z,77.72
2022-12-15T05:38:25.905Z,52.05
2022-12-15T05:40:57.481Z,67.43
2022-12-15T05:43:26.666Z,60.05
2022-12-15T05:45:55.214Z,57.65
2022-12-15T05:48:23.325Z,56.60
2022-12-15T05:50:51.424Z,70.32
2022-12-15T05:53:19.642Z,65.95
2022-12-15T05:55:47.981Z,62.28
2022-12-15T05:58:16.126Z,54.85
2022-12-15T06:00:44.303Z,79.90
2022-12-15T06:03:12.644Z,64.18
2022-12-15T06:05:40.812Z,68.20
2022-12-15T06:08:08.961Z,83.85
2022-12-15T06:10:37.078Z,91.75
2022-12-15T06:13:06.584Z,78.60
2022-12-15T06:15:34.861Z,87.93
2022-12-15T06:18:03.007Z,68.32
2022-12-15T06:20:31.082Z,79.20
2022-12-15T06:22:59.189Z,72.45
2022-12-15T06:25:27.587Z,75.25
2022-12-15T06:28:01.421Z,73.72
2022-12-15T06:30:30.014Z,74.40
2022-12-15T06:32:58.170Z,82.28
2022-12-15T06:35:26.344Z,74.95
2022-12-15T06:37:55.291Z,74.80
2022-12-15T06:40:23.483Z,66.72
2022-12-15T06:42:51.955Z,64.13
2022-12-15T06:45:20.220Z,65.78
2022-12-15T06:47:49.680Z,67.00
2022-12-15T06:50:18.191Z,67.55
2022-12-15T06:52:46.794Z,82.63
2022-12-15T06:55:15.089Z,61.45
2022-12-15T06:57:43.415Z,69.43
2022-12-15T07:00:12.041Z,61.17
2022-12-15T07:02:42.220Z,56.15
2022-12-15T07:05:10.550Z,52.70
2022-12-15T07:07:38.886Z,62.47
2022-12-15T07:10:07.351Z,56.63
2022-12-15T07:12:35.480Z,63.65
2022-12-15T07:15:03.873Z,61.83
2022-12-15T07:17:32.096Z,51.63
2022-12-15T07:20:00.262Z,50.97
2022-12-15T07:22:29.621Z,52.17
2022-12-15T07:24:58.089Z,52.33
2022-12-15T07:27:26.343Z,55.38
2022-12-15T07:29:54.511Z,50.10
2022-12-15T07:32:22.768Z,47.83
2022-12-15T07:34:50.978Z,54.92
2022-12-15T07:37:19.061Z,64.57
2022-12-15T07:39:47.216Z,61.17
2022-12-15T07:42:15.881Z,55.20
2022-12-15T07:44:45.671Z,55.15
2022-12-15T07:47:18.257Z,56.33
2022-12-15T07:49:47.061Z,47.25
2022-12-15T07:52:15.236Z,46.72
2022-12-15T07:54:43.443Z,39.83
2022-12-15T07:57:11.699Z,56.50
2022-12-15T07:59:39.989Z,49.75
2022-12-15T08:02:10.197Z,38.28
2022-12-15T08:04:39.237Z,41.35
2022-12-15T08:07:07.834Z,41.20
2022-12-15T08:09:36.532Z,31.23
2022-12-15T08:12:05.225Z,40.17
2022-12-15T08:14:34.806Z,30.67
2022-12-15T08:17:03.023Z,46.28
2022-12-15T08:19:31.236Z,34.72
2022-12-15T08:21:59.467Z,33.28
2022-12-15T08:24:27.845Z,33.70
2022-12-15T08:26:56.157Z,38.25
2022-12-15T08:29:50.049Z,28.45
2022-12-15T08:32:12.716Z,29.58
2022-12-15T08:34:41.143Z,35.88
2022-12-15T08:37:09.404Z,35.75
2022-12-15T08:39:37.775Z,32.17
2022-12-15T08:42:06.029Z,38.42
2022-12-15T08:44:34.427Z,31.98
2022-12-15T08:47:02.798Z,38.42
2022-12-15T08:49:31.176Z,34.95
2022-12-15T08:51:59.324Z,35.90
2022-12-15T08:54:27.630Z,38.20
2022-12-15T08:56:55.777Z,34.75
2022-12-15T08:59:24.082Z,24.35
2022-12-15T09:01:52.656Z,39.13
2022-12-15T09:04:20.968Z,26.35
2022-12-15T09:06:50.385Z,30.42
2022-12-15T09:09:19.189Z,41.13
2022-12-15T09:11:47.579Z,36.92
2022-12-15T09:14:16.141Z,37.35
2022-12-15T09:16:44.747Z,35.65
2022-12-15T09:19:13.137Z,46.08
2022-12-15T09:21:41.372Z,42.40
2022-12-15T09:24:20.563Z,38.22
2022-12-15T09:26:53.319Z,40.38
2022-12-15T09:29:21.670Z,39.92
2022-12-15T09:31:49.857Z,48.05
2022-12-15T09:34:18.131Z,48.90
2022-12-15T09:36:46.598Z,60.60
2022-12-15T09:39:15.150Z,36.67
2022-12-15T09:41:54.368Z,37.70
2022-12-15T09:44:24.692Z,50.83
2022-12-15T09:47:35.291Z,39.60
2022-12-15T09:50:06.479Z,41.65
2022-12-15T09:52:55.664Z,56.28
2022-12-15T09:55:30.884Z,31.15
2022-12-15T09:58:14.378Z,36.10
2022-12-15T10:00:57.461Z,27.67
2022-12-15T10:03:56.559Z,38.75
2022-12-15T10:06:33.503Z,35.05
2022-12-15T10:09:23.864Z,52.92
2022-12-15T10:11:55.446Z,38.78
2022-12-15T10:17:12.995Z,26.88
2022-12-15T10:20:01.449Z,34.30
2022-12-15T10:22:36.905Z,41.28
2022-12-15T10:25:32.298Z,22.42
2022-12-15T10:28:44.917Z,37.22
2022-12-15T10:31:58.236Z,30.55
2022-12-15T10:34:29.928Z,30.33
2022-12-15T10:36:59.049Z,37.00
2022-12-15T10:39:50.274Z,35.63
2022-12-15T10:42:24.533Z,27.70
2022-12-15T10:44:57.735Z,41.00
2022-12-15T10:47:27.361Z,18.50
2022-12-15T10:50:19.569Z,29.50
2022-12-15T10:52:52.708Z,32.67
2022-12-15T10:55:42.094Z,24.23
2022-12-15T10:58:23.082Z,31.30
2022-12-15T11:01:08.300Z,28.30
2022-12-15T11:03:39.757Z,25.17
2022-12-15T11:06:17.312Z,27.45
2022-12-15T11:08:46.402Z,88.35
2022-12-15T11:11:33.013Z,75.63
2022-12-15T11:14:14.414Z,55.60
2022-12-15T11:16:57.043Z,25.23
2022-12-15T11:19:39.879Z,61.63
2022-12-15T11:22:37.229Z,29.48
2022-12-15T11:25:37.801Z,37.97
2022-12-15T11:28:18.936Z,40.55
2022-12-15T11:30:57.381Z,39.88
2022-12-15T11:33:25.659Z,27.77
2022-12-15T11:36:05.245Z,25.35
2022-12-15T11:38:43.470Z,27.38
2022-12-15T11:41:40.369Z,29.15
2022-12-15T11:44:39.575Z,32.00
2022-12-15T11:47:37.552Z,26.52
2022-12-15T11:50:19.154Z,31.90
2022-12-15T11:53:30.749Z,26.58
2022-12-15T11:56:16.101Z,46.70
2022-12-15T11:59:05.827Z,32.15
2022-12-15T12:01:53.986Z,36.67
2022-12-15T12:04:53.803Z,31.58
2022-12-15T12:07:42.213Z,25.80
2022-12-15T12:10:50.793Z,42.05
2022-12-15T12:13:37.447Z,35.22
2022-12-15T12:16:30.209Z,37.97
2022-12-15T12:19:07.020Z,41.03
2022-12-15T12:21:44.788Z,26.27
2022-12-15T12:25:11.466Z,35.78
2022-12-15T12:28:12.292Z,31.80
2022-12-15T12:30:50.405Z,22.73
2022-12-15T12:33:31.355Z,43.90
2022-12-15T12:36:09.982Z,40.97
2022-12-15T12:38:50.832Z,35.47
2022-12-15T12:41:31.700Z,31.43
2022-12-15T12:44:16.008Z,25.77
2022-12-15T12:46:50.746Z,23.27
2022-12-15T12:49:37.264Z,30.08
2022-12-15T12:52:15.956Z,31.48
2022-12-15T12:54:55.410Z,21.85
2022-12-15T12:57:37.450Z,27.13
2022-12-15T13:00:08.874Z,24.02
2022-12-15T13:02:37.195Z,27.75
2022-12-15T13:05:32.435Z,30.42
2022-12-15T13:08:06.538Z,35.20
2022-12-15T13:10:40.918Z,33.95
2022-12-15T13:13:30.978Z,23.17
2022-12-15T13:16:14.417Z,35.90
2022-12-15T13:19:04.215Z,23.85
2022-12-15T13:21:44.664Z,35.13
2022-12-15T13:24:41.790Z,27.35
2022-12-15T13:27:10.107Z,41.80
2022-12-15T13:29:56.022Z,39.17
2022-12-15T13:32:40.475Z,22.88
2022-12-15T13:35:14.715Z,29.30
2022-12-15T13:37:56.159Z,29.40
2022-12-15T13:40:33.606Z,26.92
2022-12-15T13:43:27.794Z,32.40
2022-12-15T13:46:12.239Z,33.50
2022-12-15T13:48:52.139Z,32.90
2022-12-15T13:51:34.028Z,34.65
2022-12-15T13:56:57.410Z,41.65
2022-12-15T13:59:41.695Z,37.42
2022-12-15T14:02:31.503Z,28.05
2022-12-15T14:05:22.790Z,27.83
2022-12-15T14:07:55.239Z,36.28
2022-12-15T14:10:49.134Z,23.40
2022-12-15T14:13:27.030Z,30.40
2022-12-15T14:16:01.258Z,25.95
2022-12-15T14:18:37.695Z,26.45
2022-12-15T14:21:08.786Z,38.88
2022-12-15T14:24:10.946Z,40.83
2022-12-15T14:26:34.887Z,38.75
2022-12-15T14:29:05.956Z,25.80
2022-12-15T14:31:34.457Z,40.50
2022-12-15T14:34:25.504Z,27.67
2022-12-15T14:36:56.631Z,24.95
2022-12-15T14:39:31.659Z,26.30
2022-12-15T14:42:00.512Z,41.00
2022-12-15T14:44:38.396Z,28.10
2022-12-15T14:47:19.026Z,17.60
2022-12-15T14:49:47.779Z,29.85
2022-12-15T14:52:52.588Z,37.13
2022-12-15T14:55:32.897Z,33.35
2022-12-15T14:58:01.714Z,25.92
2022-12-15T15:00:49.379Z,30.05
2022-12-15T15:03:38.572Z,24.35
2022-12-15T15:06:12.860Z,36.88
2022-12-15T15:08:52.704Z,29.20
2022-12-15T15:11:31.658Z,26.35
2022-12-15T15:14:19.015Z,29.85
2022-12-15T15:17:14.674Z,26.35
2022-12-15T15:19:53.725Z,25.40
2022-12-15T15:22:31.705Z,37.47
2022-12-15T15:25:00.089Z,35.10
2022-12-15T15:27:31.515Z,26.10
2022-12-15T15:30:21.533Z,26.42
2022-12-15T15:32:58.385Z,24.85
2022-12-15T15:35:31.622Z,40.60
2022-12-15T15:38:06.292Z,33.50
2022-12-15T15:40:34.801Z,27.23
2022-12-15T15:43:10.014Z,33.53
2022-12-15T15:45:38.766Z,33.95
2022-12-15T15:48:07.441Z,34.75
2022-12-15T15:50:36.868Z,38.00
2022-12-15T15:53:05.569Z,38.47
2022-12-15T15:55:39.582Z,31.88
2022-12-15T15:58:14.640Z,32.38
2022-12-15T16:00:43.059Z,32.00
2022-12-15T16:03:11.526Z,32.33
2022-12-15T16:05:41.772Z,31.92
2022-12-15T16:08:19.495Z,46.65
2022-12-15T16:10:49.500Z,25.80
2022-12-15T16:13:25.601Z,38.08
2022-12-15T16:15:54.694Z,34.28
2022-12-15T16:18:23.038Z,41.60
2022-12-15T16:20:53.072Z,43.33
2022-12-15T16:23:25.354Z,43.03
2022-12-15T16:25:59.774Z,31.77
2022-12-15T16:28:30.777Z,45.83
2022-12-15T16:30:59.969Z,45.83
2022-12-15T16:33:28.480Z,38.78
2022-12-15T16:35:58.027Z,24.10
2022-12-15T16:38:29.471Z,35.25
2022-12-15T16:41:05.235Z,38.03
2022-12-15T16:43:38.113Z,39.25
2022-12-15T16:46:14.759Z,27.50
2022-12-15T16:48:43.723Z,36.15
2022-12-15T16:51:33.876Z,28.85
2022-12-15T16:54:02.276Z,53.05
2022-12-15T16:56:30.399Z,32.53
2022-12-15T16:59:30.813Z,36.35
2022-12-15T17:01:47.100Z,39.83
2022-12-15T17:04:15.651Z,30.88
2022-12-15T17:06:44.312Z,30.75
2022-12-15T17:09:20.683Z,32.95
2022-12-15T17:11:49.569Z,40.58
2022-12-15T17:14:17.884Z,40.10
2022-12-15T17:16:46.120Z,39.15
2022-12-15T17:19:20.669Z,24.35
2022-12-15T17:21:51.611Z,36.67
2022-12-15T17:24:21.341Z,41.47
2022-12-15T17:26:50.126Z,41.30
2022-12-15T17:29:22.338Z,53.00
2022-12-15T17:31:51.031Z,30.65
2022-12-15T17:34:34.439Z,38.60
2022-12-15T17:37:05.448Z,45.28
2022-12-15T17:39:35.475Z,53.77
2022-12-15T17:42:04.418Z,42.33
2022-12-15T17:44:37.733Z,53.58
2022-12-15T17:47:08.963Z,78.20
2022-12-15T17:49:38.610Z,67.45
2022-12-15T17:52:19.116Z,36.38
2022-12-15T17:54:47.606Z,55.20
2022-12-15T17:57:15.938Z,66.93
2022-12-15T17:59:44.206Z,50.67
2022-12-15T18:02:14.243Z,75.60
2022-12-15T18:04:43.610Z,61.67
2022-12-15T18:07:23.185Z,106.65
2022-12-15T18:09:52.788Z,102.90
2022-12-15T18:12:24.427Z,70.18
2022-12-15T18:14:53.512Z,74.45
2022-12-15T18:17:22.043Z,68.78
2022-12-15T18:19:50.600Z,88.18
2022-12-15T18:22:24.312Z,77.68
2022-12-15T18:24:54.310Z,58.08
2022-12-15T18:27:28.810Z,60.78
2022-12-15T18:29:57.646Z,62.70
2022-12-15T18:32:28.128Z,81.20
2022-12-15T18:34:58.782Z,57.53
2022-12-15T18:37:27.044Z,59.55
2022-12-15T18:39:58.216Z,53.53
2022-12-15T18:42:29.660Z,79.50
2022-12-15T18:44:59.207Z,59.03
2022-12-15T18:47:27.604Z,46.65
2022-12-15T18:49:56.054Z,66.15
2022-12-15T18:52:30.005Z,49.70
2022-12-15T18:55:01.712Z,50.92
2022-12-15T18:57:35.122Z,61.72
2022-12-15T19:00:08.607Z,75.28
2022-12-15T19:02:37.294Z,49.30
2022-12-15T19:05:06.128Z,62.22
2022-12-15T19:07:36.195Z,50.45
2022-12-15T19:10:04.925Z,52.83
2022-12-15T19:12:33.218Z,81.20
2022-12-15T19:15:01.610Z,54.30
2022-12-15T19:17:29.970Z,56.40
2022-12-15T19:19:58.263Z,41.97
2022-12-15T19:22:26.621Z,60.88
2022-12-15T19:24:55.053Z,50.58
2022-12-15T19:27:25.649Z,42.17
2022-12-15T19:29:55.202Z,59.30
2022-12-15T19:32:24.314Z,54.25
2022-12-15T19:34:52.752Z,57.42
2022-12-15T19:37:27.902Z,57.30
2022-12-15T19:40:01.219Z,50.20
2022-12-15T19:42:37.041Z,44.25
2022-12-15T19:45:20.188Z,42.88
2022-12-15T19:47:48.664Z,55.88
2022-12-15T19:50:22.987Z,74.88
2022-12-15T19:53:00.513Z,62.00
2022-12-15T19:55:35.291Z,60.05
2022-12-15T19:58:27.353Z,67.25
2022-12-15T20:01:07.138Z,43.85
2022-12-15T20:03:36.374Z,54.65
2022-12-15T20:06:10.862Z,67.03
2022-12-15T20:08:42.358Z,53.20
2022-12-15T20:11:25.778Z,77.35
2022-12-15T20:13:54.984Z,56.28
2022-12-15T20:16:23.280Z,67.78
2022-12-15T20:18:54.213Z,55.97
2022-12-15T20:21:23.544Z,55.65
2022-12-15T20:23:58.009Z,56.53
2022-12-15T20:26:29.107Z,51.42
2022-12-15T20:28:58.225Z,69.30
2022-12-15T20:31:26.786Z,77.40
2022-12-15T20:33:55.397Z,45.03
2022-12-15T20:36:28.608Z,42.20
2022-12-15T20:38:57.559Z,46.08
2022-12-15T20:41:28.491Z,33.47
2022-12-15T20:43:57.531Z,68.63
2022-12-15T20:46:30.449Z,69.47
2022-12-15T20:48:58.791Z,71.70
2022-12-15T20:51:30.239Z,57.30
2022-12-15T20:54:02.272Z,49.40
2022-12-15T20:56:30.807Z,41.85
2022-12-15T20:58:59.518Z,31.20
2022-12-15T21:01:36.269Z,47.17
2022-12-15T21:07:05.386Z,48.33
2022-12-15T21:09:35.184Z,42.75
2022-12-15T21:12:09.041Z,47.10
2022-12-15T21:14:37.677Z,42.75
2022-12-15T21:17:06.033Z,45.10
2022-12-15T21:19:34.316Z,43.95
2022-12-15T21:22:02.653Z,58.92
2022-12-15T21:24:31.868Z,49.78
2022-12-15T21:27:00.115Z,43.17
2022-12-15T21:29:29.547Z,53.60
2022-12-15T21:31:57.918Z,58.22
2022-12-15T21:34:26.061Z,44.67
2022-12-15T21:36:55.139Z,41.42
2022-12-15T21:39:27.368Z,68.30
2022-12-15T21:41:56.631Z,68.25
2022-12-15T21:44:24.892Z,67.57
2022-12-15T21:46:53.167Z,70.85
2022-12-15T21:49:25.838Z,57.80
2022-12-15T21:52:00.566Z,48.60
2022-12-15T21:54:33.020Z,51.05
2022-12-15T21:57:01.740Z,65.68
2022-12-15T21:59:32.228Z,44.28
2022-12-15T22:02:14.311Z,57.13
2022-12-15T22:07:15.985Z,49.28
2022-12-15T22:09:45.018Z,63.22
2022-12-15T22:12:23.948Z,59.25
2022-12-15T22:14:52.326Z,41.55
2022-12-15T22:17:22.104Z,48.03
2022-12-15T22:19:50.410Z,44.90
2022-12-15T22:22:19.359Z,43.95
2022-12-15T22:24:47.721Z,38.50
2022-12-15T22:27:20.151Z,49.08
2022-12-15T22:29:51.138Z,56.78
2022-12-15T22:32:19.571Z,52.45
2022-12-15T22:34:47.679Z,60.03
2022-12-15T22:37:15.932Z,43.53
2022-12-15T22:39:44.122Z,48.80
2022-12-15T22:42:16.979Z,41.63
2022-12-15T22:44:45.889Z,53.05
2022-12-15T22:47:14.181Z,38.28
2022-12-15T22:49:42.811Z,49.00
2022-12-15T22:52:17.864Z,61.08
2022-12-15T22:54:46.279Z,49.28
2022-12-15T22:57:22.450Z,42.20
2022-12-15T23:00:01.336Z,45.13
2022-12-15T23:02:35.434Z,61.40
2022-12-15T23:05:04.558Z,51.47
2022-12-15T23:07:33.708Z,49.10
2022-12-15T23:10:02.400Z,37.65
2022-12-15T23:12:30.706Z,40.97
2022-12-15T23:14:59.682Z,88.00
2022-12-15T23:17:28.030Z,91.15
2022-12-15T23:19:56.439Z,104.10
2022-12-15T23:22:33.663Z,97.72
2022-12-15T23:25:01.958Z,76.20
2022-12-15T23:27:30.255Z,64.00
2022-12-15T23:29:58.409Z,50.33
2022-12-15T23:32:26.764Z,53.13
2022-12-15T23:34:55.043Z,100.00
2022-12-15T23:37:23.294Z,103.50
2022-12-15T23:39:51.382Z,124.93
2022-12-15T23:42:20.093Z,132.77
2022-12-15T23:44:48.252Z,116.10
2022-12-15T23:47:16.508Z,147.55
2022-12-15T23:49:44.823Z,123.88
2022-12-15T23:52:13.175Z,110.15
2022-12-15T23:54:41.338Z,100.85
2022-12-15T23:57:09.533Z,97.68
2022-12-15T23:59:37.848Z,67.22
